createdAt,value
2022-08-20T04:46:03.264Z,18.67
2022-08-20T04:47:04.250Z,18.66
2022-08-20T04:48:04.254Z,18.69
2022-08-20T04:49:04.224Z,18.73
2022-08-20T04:50:04.222Z,18.72
2022-08-20T04:51:04.204Z,18.72
2022-08-20T04:52:04.196Z,18.80
2022-08-20T04:53:04.201Z,18.78
2022-08-20T04:54:04.180Z,18.80
2022-08-20T04:55:04.158Z,18.76
2022-08-20T04:56:04.135Z,18.78
2022-08-20T04:57:04.138Z,18.78
2022-08-20T04:58:04.148Z,18.82
2022-08-20T04:59:04.115Z,18.87
2022-08-20T05:00:04.109Z,18.82
2022-08-20T05:01:04.188Z,18.80
2022-08-20T05:02:04.090Z,18.78
2022-08-20T05:03:04.093Z,18.84
2022-08-20T05:04:04.068Z,18.85
2022-08-20T05:05:04.053Z,18.85
2022-08-20T05:06:04.053Z,18.82
2022-08-20T05:07:04.030Z,18.85
2022-08-20T05:08:04.038Z,18.88
2022-08-20T05:09:04.009Z,18.88
2022-08-20T05:10:04.003Z,18.85
2022-08-20T05:11:27.581Z,18.75
2022-08-20T05:12:03.988Z,18.73
2022-08-20T05:13:03.981Z,18.75
2022-08-20T05:14:03.963Z,18.76
2022-08-20T05:15:03.949Z,18.76
2022-08-20T05:16:03.945Z,18.81
2022-08-20T05:17:03.930Z,18.82
2022-08-20T05:18:03.946Z,18.87
2022-08-20T05:19:03.904Z,18.90
2022-08-20T05:20:03.899Z,18.90
2022-08-20T05:21:03.883Z,18.92
2022-08-20T05:22:03.895Z,18.94
2022-08-20T05:23:03.861Z,18.91
2022-08-20T05:24:03.871Z,18.87
2022-08-20T05:25:03.843Z,18.85
2022-08-20T05:26:03.829Z,18.92
2022-08-20T05:27:03.827Z,18.92
2022-08-20T05:28:03.809Z,18.91
2022-08-20T05:29:03.817Z,18.88
2022-08-20T05:30:03.799Z,18.90
2022-08-20T05:31:03.782Z,18.88
2022-08-20T05:32:03.765Z,18.85
2022-08-20T05:33:03.758Z,18.87
2022-08-20T05:34:03.783Z,18.90
2022-08-20T05:35:03.738Z,18.94
2022-08-20T05:36:03.726Z,18.98
2022-08-20T05:37:03.717Z,18.98
2022-08-20T05:38:03.701Z,18.99
2022-08-20T05:39:03.728Z,18.99
2022-08-20T05:40:03.746Z,19.00
2022-08-20T05:41:03.673Z,18.87
2022-08-20T05:42:03.659Z,18.84
2022-08-20T05:43:03.653Z,18.82
2022-08-20T05:44:03.655Z,18.88
2022-08-20T05:45:03.637Z,18.87
2022-08-20T05:46:03.624Z,18.90
2022-08-20T05:47:04.175Z,18.91
2022-08-20T05:48:03.613Z,18.94
2022-08-20T05:49:03.598Z,18.94
2022-08-20T05:50:03.584Z,18.85
2022-08-20T05:51:03.572Z,18.88
2022-08-20T05:52:03.554Z,18.91
2022-08-20T05:53:03.548Z,18.91
2022-08-20T05:54:03.541Z,18.92
2022-08-20T05:55:03.522Z,18.91
2022-08-20T05:56:03.510Z,18.94
2022-08-20T05:57:03.503Z,18.94
2022-08-20T05:58:03.489Z,18.98
2022-08-20T05:59:03.502Z,18.99
2022-08-20T06:00:03.468Z,18.94
2022-08-20T06:01:03.492Z,18.91
2022-08-20T06:02:03.447Z,18.91
2022-08-20T06:03:03.441Z,18.94
2022-08-20T06:04:03.445Z,18.98
2022-08-20T06:05:03.419Z,18.99
2022-08-20T06:06:03.407Z,18.99
2022-08-20T06:07:03.397Z,19.00
2022-08-20T06:08:07.529Z,18.98
2022-08-20T06:09:03.396Z,18.98
2022-08-20T06:10:03.363Z,18.95
2022-08-20T06:11:03.357Z,18.90
2022-08-20T06:12:03.341Z,18.92
2022-08-20T06:13:03.335Z,19.02
2022-08-20T06:14:03.336Z,19.07
2022-08-20T06:15:03.326Z,19.11
2022-08-20T06:16:03.310Z,19.18
2022-08-20T06:17:03.294Z,19.19
2022-08-20T06:18:07.151Z,19.22
2022-08-20T06:19:03.304Z,19.26
2022-08-20T06:20:03.273Z,19.32
2022-08-20T06:21:03.257Z,19.32
2022-08-20T06:22:18.095Z,19.25
2022-08-20T06:23:03.235Z,19.22
2022-08-20T06:24:03.230Z,19.26
2022-08-20T06:25:03.218Z,19.29
2022-08-20T06:26:03.194Z,19.29
2022-08-20T06:27:03.190Z,19.29
2022-08-20T06:28:03.177Z,19.29
2022-08-20T06:29:03.182Z,19.28
2022-08-20T06:30:03.152Z,19.26
2022-08-20T06:31:03.147Z,19.33
2022-08-20T06:32:03.129Z,19.36
2022-08-20T06:33:03.131Z,19.36
2022-08-20T06:34:03.123Z,19.36
2022-08-20T06:35:03.140Z,19.32
2022-08-20T06:36:03.085Z,19.33
2022-08-20T06:37:03.083Z,19.41
2022-08-20T06:38:03.066Z,19.55
2022-08-20T06:39:03.059Z,19.59
2022-08-20T06:40:03.265Z,19.76
2022-08-20T06:41:03.040Z,19.91
2022-08-20T06:42:03.023Z,19.91
2022-08-20T06:43:03.017Z,19.78
2022-08-20T06:44:02.999Z,19.77
2022-08-20T06:45:03.008Z,19.68
2022-08-20T06:46:02.979Z,19.63
2022-08-20T06:47:02.972Z,19.68
2022-08-20T06:48:02.973Z,19.73
2022-08-20T06:49:02.953Z,19.76
2022-08-20T06:50:02.947Z,19.87
2022-08-20T06:51:02.929Z,19.87
2022-08-20T06:52:02.924Z,19.84
2022-08-20T06:53:02.913Z,19.78
2022-08-20T06:54:02.900Z,19.84
2022-08-20T06:55:02.902Z,19.76
2022-08-20T06:56:02.875Z,19.73
2022-08-20T06:57:02.867Z,19.71
2022-08-20T06:58:02.851Z,19.73
2022-08-20T06:59:02.843Z,19.74
2022-08-20T07:00:02.841Z,19.80
2022-08-20T07:01:05.172Z,19.76
2022-08-20T07:02:02.873Z,19.65
2022-08-20T07:03:02.803Z,19.62
2022-08-20T07:04:02.791Z,19.63
2022-08-20T07:05:02.804Z,19.71
2022-08-20T07:06:02.767Z,19.80
2022-08-20T07:07:02.762Z,19.87
2022-08-20T07:08:02.744Z,19.95
2022-08-20T07:09:02.742Z,20.02
2022-08-20T07:10:02.743Z,19.99
2022-08-20T07:11:02.717Z,19.94
2022-08-20T07:12:02.703Z,19.99
2022-08-20T07:13:02.701Z,19.99
2022-08-20T07:14:02.679Z,20.01
2022-08-20T07:15:02.698Z,19.96
2022-08-20T07:16:02.668Z,19.98
2022-08-20T07:17:02.663Z,20.03
2022-08-20T07:18:02.637Z,20.10
2022-08-20T07:19:02.639Z,20.23
2022-08-20T07:20:02.621Z,20.33
2022-08-20T07:21:02.701Z,20.43
2022-08-20T07:22:02.594Z,20.54
2022-08-20T07:23:02.593Z,20.66
2022-08-20T07:24:02.575Z,20.82
2022-08-20T07:25:02.567Z,20.98
2022-08-20T07:26:02.566Z,20.99
2022-08-20T07:27:02.544Z,21.06
2022-08-20T07:28:02.544Z,21.09
2022-08-20T07:29:02.520Z,21.22
2022-08-20T07:30:02.572Z,21.49
2022-08-20T07:31:13.332Z,21.86
2022-08-20T07:32:02.489Z,21.98
2022-08-20T07:33:02.475Z,21.90
2022-08-20T07:34:02.460Z,21.82
2022-08-20T07:35:02.460Z,21.61
2022-08-20T07:36:02.458Z,21.38
2022-08-20T07:37:02.433Z,21.32
2022-08-20T07:38:02.416Z,21.25
2022-08-20T07:39:05.707Z,21.09
2022-08-20T07:40:02.442Z,20.95
2022-08-20T07:41:02.401Z,20.82
2022-08-20T07:42:02.373Z,20.77
2022-08-20T07:43:02.368Z,20.76
2022-08-20T07:44:02.349Z,20.76
2022-08-20T07:45:02.347Z,20.80
2022-08-20T07:46:02.345Z,20.85
2022-08-20T07:47:03.012Z,20.98
2022-08-20T07:48:02.306Z,21.06
2022-08-20T07:49:02.291Z,21.04
2022-08-20T07:50:02.286Z,21.01
2022-08-20T07:51:02.286Z,20.91
2022-08-20T07:52:02.268Z,20.98
2022-08-20T07:53:02.256Z,21.19
2022-08-20T07:54:02.241Z,21.29
2022-08-20T07:55:02.238Z,21.40
2022-08-20T07:56:02.231Z,21.43
2022-08-20T07:57:02.213Z,21.83
2022-08-20T07:58:02.204Z,21.96
2022-08-20T07:59:02.191Z,22.14
2022-08-20T08:00:02.259Z,22.22
2022-08-20T08:01:02.268Z,22.40
2022-08-20T08:02:02.157Z,22.40
2022-08-20T08:03:02.148Z,22.36
2022-08-20T08:04:02.135Z,22.07
2022-08-20T08:05:02.129Z,21.69
2022-08-20T08:06:02.130Z,21.46
2022-08-20T08:07:02.123Z,21.24
2022-08-20T08:08:05.658Z,21.07
2022-08-20T08:09:02.092Z,20.91
2022-08-20T08:10:02.067Z,20.70
2022-08-20T08:11:02.072Z,20.62
2022-08-20T08:12:02.051Z,20.59
2022-08-20T08:13:02.040Z,20.61
2022-08-20T08:14:02.027Z,20.64
2022-08-20T08:15:02.021Z,20.70
2022-08-20T08:16:02.016Z,20.72
2022-08-20T08:17:02.000Z,20.73
2022-08-20T08:18:01.981Z,20.74
2022-08-20T08:19:02.277Z,20.74
2022-08-20T08:20:01.956Z,20.73
2022-08-20T08:21:01.965Z,20.82
2022-08-20T08:22:01.938Z,20.95
2022-08-20T08:23:01.931Z,21.16
2022-08-20T08:24:01.914Z,21.38
2022-08-20T08:25:01.907Z,21.54
2022-08-20T08:26:01.907Z,22.00
2022-08-20T08:27:01.884Z,22.37
2022-08-20T08:28:01.870Z,22.54
2022-08-20T08:29:01.863Z,22.75
2022-08-20T08:30:01.853Z,22.79
2022-08-20T08:31:01.860Z,23.20
2022-08-20T08:32:01.835Z,23.09
2022-08-20T08:33:01.828Z,22.86
2022-08-20T08:34:01.807Z,22.68
2022-08-20T08:35:01.802Z,22.58
2022-08-20T08:36:01.804Z,22.45
2022-08-20T08:37:01.781Z,22.30
2022-08-20T08:38:01.763Z,22.18
2022-08-20T08:39:01.757Z,22.05
2022-08-20T08:40:01.781Z,21.83
2022-08-20T08:41:01.759Z,21.77
2022-08-20T08:42:01.720Z,21.54
2022-08-20T08:43:01.718Z,21.44
2022-08-20T08:44:01.701Z,21.38
2022-08-20T08:45:01.703Z,21.40
2022-08-20T08:46:01.690Z,21.32
2022-08-20T08:47:01.746Z,21.40
2022-08-20T08:48:01.655Z,21.50
2022-08-20T08:49:01.654Z,21.50
2022-08-20T08:50:01.637Z,21.49
2022-08-20T08:51:01.630Z,21.46
2022-08-20T08:52:01.632Z,21.56
2022-08-20T08:53:01.610Z,21.61
2022-08-20T08:54:06.435Z,21.64
2022-08-20T08:55:01.594Z,21.65
2022-08-20T08:56:01.574Z,21.59
2022-08-20T08:57:01.579Z,21.50
2022-08-20T08:58:04.329Z,21.47
2022-08-20T08:59:01.556Z,21.44
2022-08-20T09:00:04.720Z,21.37
2022-08-20T09:01:02.115Z,21.13
2022-08-20T09:02:01.566Z,21.07
2022-08-20T09:03:01.714Z,20.99
2022-08-20T09:04:01.486Z,20.92
2022-08-20T09:05:01.491Z,21.01
2022-08-20T09:06:01.472Z,21.10
2022-08-20T09:07:01.476Z,21.04
2022-08-20T09:08:01.445Z,20.99
2022-08-20T09:09:01.465Z,21.03
2022-08-20T09:10:01.453Z,20.94
2022-08-20T09:11:01.417Z,20.89
2022-08-20T09:12:01.428Z,20.80
2022-08-20T09:13:01.401Z,20.69
2022-08-20T09:14:01.381Z,20.64
2022-08-20T09:15:02.982Z,20.54
2022-08-20T09:16:01.357Z,20.57
2022-08-20T09:17:01.367Z,20.67
2022-08-20T09:18:01.337Z,20.74
2022-08-20T09:19:01.335Z,20.84
2022-08-20T09:20:01.320Z,20.94
2022-08-20T09:21:01.317Z,20.92
2022-08-20T09:22:01.324Z,20.99
2022-08-20T09:23:01.292Z,20.99
2022-08-20T09:24:01.279Z,21.07
2022-08-20T09:25:01.271Z,21.13
2022-08-20T09:26:01.293Z,21.19
2022-08-20T09:27:01.264Z,21.27
2022-08-20T09:28:01.247Z,21.42
2022-08-20T09:29:01.225Z,21.56
2022-08-20T09:30:01.211Z,21.64
2022-08-20T09:31:01.213Z,21.59
2022-08-20T09:32:01.203Z,21.72
2022-08-20T09:33:01.193Z,21.82
2022-08-20T09:34:01.168Z,22.03
2022-08-20T09:35:01.175Z,22.12
2022-08-20T09:36:01.153Z,22.17
2022-08-20T09:37:01.158Z,22.12
2022-08-20T09:38:01.125Z,22.14
2022-08-20T09:39:02.801Z,22.22
2022-08-20T09:40:01.142Z,22.52
2022-08-20T09:41:01.119Z,22.83
2022-08-20T09:42:01.103Z,23.25
2022-08-20T09:43:01.094Z,23.39
2022-08-20T09:44:01.065Z,23.42
2022-08-20T09:45:01.060Z,23.39
2022-08-20T09:46:01.046Z,23.35
2022-08-20T09:47:01.038Z,23.25
2022-08-20T09:48:01.029Z,23.31
2022-08-20T09:49:01.003Z,23.33
2022-08-20T09:50:01.001Z,23.60
2022-08-20T09:51:00.991Z,23.54
2022-08-20T09:52:00.999Z,23.61
2022-08-20T09:53:00.983Z,23.91
2022-08-20T09:54:00.966Z,24.43
2022-08-20T09:55:00.944Z,25.14
2022-08-20T09:56:00.948Z,26.20
2022-08-20T09:57:00.936Z,26.94
2022-08-20T09:58:00.922Z,27.41
2022-08-20T09:59:02.948Z,27.27
2022-08-20T10:00:00.900Z,26.85
2022-08-20T10:01:00.882Z,26.66
2022-08-20T10:02:00.940Z,25.95
2022-08-20T10:03:00.902Z,25.24
2022-08-20T10:04:00.852Z,24.60
2022-08-20T10:05:00.842Z,24.13
2022-08-20T10:06:00.816Z,23.75
2022-08-20T10:07:00.828Z,23.54
2022-08-20T10:08:00.808Z,23.39
2022-08-20T10:09:00.796Z,23.46
2022-08-20T10:10:00.789Z,23.60
2022-08-20T10:11:00.774Z,23.57
2022-08-20T10:12:00.784Z,23.50
2022-08-20T10:13:00.752Z,23.28
2022-08-20T10:14:00.746Z,23.20
2022-08-20T10:15:00.730Z,23.13
2022-08-20T10:16:00.726Z,23.09
2022-08-20T10:17:00.720Z,23.36
2022-08-20T10:18:00.720Z,23.93
2022-08-20T10:19:00.689Z,23.84
2022-08-20T10:20:00.684Z,23.78
2022-08-20T10:21:00.673Z,23.48
2022-08-20T10:22:00.678Z,23.53
2022-08-20T10:23:00.641Z,23.53
2022-08-20T10:24:00.640Z,23.63
2022-08-20T10:25:00.639Z,23.87
2022-08-20T10:26:00.625Z,24.31
2022-08-20T10:27:00.627Z,24.65
2022-08-20T10:28:00.596Z,24.43
2022-08-20T10:29:00.579Z,24.27
2022-08-20T10:30:00.572Z,23.94
2022-08-20T10:31:00.559Z,24.71
2022-08-20T10:32:00.553Z,26.35
2022-08-20T10:33:00.551Z,26.97
2022-08-20T10:34:00.534Z,27.57
2022-08-20T10:35:00.568Z,28.25
2022-08-20T10:36:00.531Z,28.96
2022-08-20T10:37:00.493Z,28.89
2022-08-20T10:38:00.500Z,29.12
2022-08-20T10:39:00.476Z,27.88
2022-08-20T10:40:00.567Z,27.82
2022-08-20T10:41:00.448Z,27.04
2022-08-20T10:42:00.442Z,26.84
2022-08-20T10:43:00.445Z,26.37
2022-08-20T10:44:00.423Z,26.55
2022-08-20T10:45:00.405Z,26.72
2022-08-20T10:46:00.400Z,26.12
2022-08-20T10:47:00.385Z,25.88
2022-08-20T10:48:00.399Z,25.52
2022-08-20T10:49:00.363Z,26.54
2022-08-20T10:50:00.361Z,25.99
2022-08-20T10:51:00.343Z,25.33
2022-08-20T10:52:00.336Z,25.06
2022-08-20T10:53:00.341Z,24.98
2022-08-20T10:54:00.335Z,24.87
2022-08-20T10:55:00.303Z,24.71
2022-08-20T10:56:00.294Z,24.57
2022-08-20T10:57:00.275Z,24.50
2022-08-20T10:58:00.288Z,24.62
2022-08-20T10:59:00.257Z,24.84
2022-08-20T11:00:00.253Z,26.48
2022-08-20T11:01:00.229Z,27.77
2022-08-20T11:02:00.308Z,28.56
2022-08-20T11:03:00.228Z,28.98
2022-08-20T11:04:00.205Z,29.06
2022-08-20T11:05:00.200Z,29.18
2022-08-20T11:06:00.187Z,30.17
2022-08-20T11:07:00.169Z,30.34
2022-08-20T11:08:00.197Z,28.81
2022-08-20T11:09:00.167Z,27.55
2022-08-20T11:10:00.157Z,27.92
2022-08-20T11:11:00.131Z,27.40
2022-08-20T11:12:00.147Z,28.27
2022-08-20T11:13:00.121Z,28.93
2022-08-20T11:14:00.129Z,30.00
2022-08-20T11:15:00.088Z,30.43
2022-08-20T11:16:00.081Z,31.09
2022-08-20T11:17:00.067Z,30.11
2022-08-20T11:18:00.079Z,29.46
2022-08-20T11:19:00.040Z,28.98
2022-08-20T11:20:00.039Z,29.45
2022-08-20T11:21:00.023Z,29.61
2022-08-20T11:22:00.023Z,30.26
2022-08-20T11:23:00.013Z,30.35
2022-08-20T11:24:02.975Z,29.98
2022-08-20T11:24:59.981Z,29.53
2022-08-20T11:25:59.974Z,29.43
2022-08-20T11:26:59.963Z,29.48
2022-08-20T11:27:59.971Z,30.27
2022-08-20T11:28:59.946Z,29.92
2022-08-20T11:29:59.935Z,28.59
2022-08-20T11:30:59.919Z,27.54
2022-08-20T11:31:59.917Z,26.69
2022-08-20T11:32:59.919Z,26.13
2022-08-20T11:33:59.896Z,25.45
2022-08-20T11:34:59.875Z,25.21
2022-08-20T11:35:59.869Z,25.06
2022-08-20T11:36:59.854Z,25.21
2022-08-20T11:37:59.865Z,25.27
2022-08-20T11:38:59.839Z,25.97
2022-08-20T11:39:59.906Z,27.90
2022-08-20T11:40:59.820Z,29.11
2022-08-20T11:41:59.810Z,30.37
2022-08-20T11:43:16.750Z,31.28
2022-08-20T11:44:20.853Z,30.77
2022-08-20T11:44:59.781Z,29.33
2022-08-20T11:45:59.775Z,29.78
2022-08-20T11:46:59.760Z,28.78
2022-08-20T11:47:59.767Z,27.59
2022-08-20T11:48:59.737Z,27.55
2022-08-20T11:49:59.730Z,27.04
2022-08-20T11:50:59.713Z,26.77
2022-08-20T11:51:59.711Z,26.37
2022-08-20T11:53:01.645Z,26.20
2022-08-20T11:53:59.706Z,25.85
2022-08-20T11:54:59.679Z,25.52
2022-08-20T11:55:59.671Z,25.09
2022-08-20T11:56:59.654Z,24.83
2022-08-20T11:58:00.809Z,24.64
2022-08-20T11:58:59.651Z,24.58
2022-08-20T11:59:59.628Z,24.53
2022-08-20T12:00:59.605Z,24.50
2022-08-20T12:02:03.315Z,24.40
2022-08-20T12:02:59.989Z,24.30
2022-08-20T12:03:59.606Z,24.21
2022-08-20T12:04:59.574Z,24.09
2022-08-20T12:05:59.570Z,24.03
2022-08-20T12:07:00.779Z,23.95
2022-08-20T12:07:59.550Z,23.97
2022-08-20T12:08:59.553Z,23.93
2022-08-20T12:09:59.531Z,23.97
2022-08-20T12:10:59.524Z,23.97
2022-08-20T12:11:59.507Z,23.97
2022-08-20T12:12:59.853Z,23.85
2022-08-20T12:13:59.496Z,23.78
2022-08-20T12:14:59.470Z,23.61
2022-08-20T12:15:59.460Z,23.55
2022-08-20T12:16:59.448Z,23.40
2022-08-20T12:17:59.440Z,23.31
2022-08-20T12:18:59.437Z,23.32
2022-08-20T12:19:59.416Z,23.35
2022-08-20T12:20:59.411Z,23.35
2022-08-20T12:21:59.402Z,23.23
2022-08-20T12:22:59.407Z,23.22
2022-08-20T12:23:59.374Z,23.28
2022-08-20T12:24:59.365Z,23.33
2022-08-20T12:25:59.468Z,23.43
2022-08-20T12:26:59.338Z,23.48
2022-08-20T12:27:59.347Z,23.47
2022-08-20T12:28:59.317Z,23.53
2022-08-20T12:29:59.310Z,23.61
2022-08-20T12:30:59.297Z,23.80
2022-08-20T12:31:59.285Z,23.97
2022-08-20T12:32:59.289Z,24.24
2022-08-20T12:33:59.267Z,24.22
2022-08-20T12:34:59.250Z,24.25
2022-08-20T12:35:59.252Z,24.31
2022-08-20T12:36:59.254Z,24.37
2022-08-20T12:37:59.233Z,24.50
2022-08-20T12:38:59.215Z,24.84
2022-08-20T12:39:59.260Z,24.62
2022-08-20T12:40:59.186Z,24.73
2022-08-20T12:41:59.180Z,24.67
2022-08-20T12:42:59.194Z,24.73
2022-08-20T12:43:59.157Z,24.91
2022-08-20T12:44:59.140Z,25.17
2022-08-20T12:45:59.135Z,26.09
2022-08-20T12:46:59.123Z,25.54
2022-08-20T12:47:59.113Z,25.62
2022-08-20T12:48:59.110Z,25.85
2022-08-20T12:49:59.092Z,26.01
2022-08-20T12:50:59.095Z,26.30
2022-08-20T12:51:59.096Z,26.43
2022-08-20T12:52:59.274Z,26.23
2022-08-20T12:53:59.065Z,26.36
2022-08-20T12:54:59.049Z,27.14
2022-08-20T12:55:59.030Z,28.14
2022-08-20T12:56:59.013Z,28.70
2022-08-20T12:57:59.023Z,28.33
2022-08-20T12:58:58.989Z,28.68
2022-08-20T12:59:59.146Z,29.15
2022-08-20T13:00:59.041Z,29.16
2022-08-20T13:01:58.967Z,29.34
2022-08-20T13:02:59.171Z,29.57
2022-08-20T13:03:59.361Z,29.08
2022-08-20T13:05:03.986Z,28.21
2022-08-20T13:05:58.935Z,27.84
2022-08-20T13:06:58.911Z,27.22
2022-08-20T13:07:58.925Z,26.52
2022-08-20T13:08:58.891Z,25.57
2022-08-20T13:09:58.889Z,25.28
2022-08-20T13:10:58.871Z,24.98
2022-08-20T13:11:58.864Z,24.83
2022-08-20T13:12:58.863Z,24.55
2022-08-20T13:13:58.846Z,24.40
2022-08-20T13:14:58.828Z,24.24
2022-08-20T13:15:58.829Z,24.10
2022-08-20T13:16:58.808Z,23.80
2022-08-20T13:17:58.818Z,23.48
2022-08-20T13:18:58.785Z,23.10
2022-08-20T13:19:58.788Z,22.57
2022-08-20T13:20:58.769Z,22.02
2022-08-20T13:21:58.760Z,21.65
2022-08-20T13:22:58.883Z,21.28
2022-08-20T13:23:58.743Z,21.09
2022-08-20T13:24:58.722Z,21.01
2022-08-20T13:25:58.718Z,21.03
2022-08-20T13:26:58.699Z,21.10
2022-08-20T13:27:58.711Z,21.37
2022-08-20T13:28:58.676Z,21.46
2022-08-20T13:29:59.250Z,21.67
2022-08-20T13:30:58.656Z,21.79
2022-08-20T13:31:58.655Z,21.88
2022-08-20T13:32:58.823Z,21.67
2022-08-20T13:33:58.634Z,21.74
2022-08-20T13:34:58.616Z,21.94
2022-08-20T13:35:58.610Z,21.91
2022-08-20T13:36:58.596Z,21.82
2022-08-20T13:37:58.627Z,21.91
2022-08-20T13:38:58.569Z,21.91
2022-08-20T13:39:58.666Z,22.05
2022-08-20T13:40:58.554Z,22.21
2022-08-20T13:41:58.555Z,22.25
2022-08-20T13:43:00.499Z,22.47
2022-08-20T13:43:58.525Z,22.72
2022-08-20T13:44:58.511Z,22.65
2022-08-20T13:45:58.503Z,22.68
2022-08-20T13:46:58.488Z,22.91
2022-08-20T13:47:58.588Z,22.97
2022-08-20T13:48:58.466Z,23.23
2022-08-20T13:49:58.458Z,23.39
2022-08-20T13:50:58.443Z,23.58
2022-08-20T13:51:58.437Z,23.63
2022-08-20T13:52:58.687Z,23.58
2022-08-20T13:53:58.414Z,23.36
2022-08-20T13:54:58.401Z,23.53
2022-08-20T13:55:58.397Z,23.83
2022-08-20T13:56:58.379Z,23.88
2022-08-20T13:57:58.388Z,23.87
2022-08-20T13:58:58.366Z,24.02
2022-08-20T13:59:58.357Z,24.27
2022-08-20T14:00:58.400Z,24.31
2022-08-20T14:01:58.325Z,24.53
2022-08-20T14:02:58.647Z,24.53
2022-08-20T14:03:58.303Z,24.49
2022-08-20T14:04:58.296Z,24.52
2022-08-20T14:05:58.283Z,24.50
2022-08-20T14:06:58.277Z,24.55
2022-08-20T14:07:58.275Z,24.49
2022-08-20T14:08:58.254Z,24.28
2022-08-20T14:09:58.235Z,24.13
2022-08-20T14:10:58.233Z,24.10
2022-08-20T14:11:58.219Z,24.15
2022-08-20T14:12:58.508Z,23.80
2022-08-20T14:13:58.203Z,23.80
2022-08-20T14:14:58.218Z,23.73
2022-08-20T14:15:58.172Z,23.53
2022-08-20T14:16:58.168Z,23.36
2022-08-20T14:17:58.402Z,23.32
2022-08-20T14:18:58.146Z,23.32
2022-08-20T14:20:01.105Z,23.13
2022-08-20T14:20:58.127Z,23.10
2022-08-20T14:21:58.105Z,23.23
2022-08-20T14:22:58.320Z,23.32
2022-08-20T14:23:58.091Z,23.36
2022-08-20T14:24:58.118Z,23.39
2022-08-20T14:25:58.065Z,23.48
2022-08-20T14:26:58.059Z,23.63
2022-08-20T14:27:58.058Z,23.73
2022-08-20T14:28:58.053Z,23.70
2022-08-20T14:29:58.021Z,23.83
2022-08-20T14:30:58.029Z,23.78
2022-08-20T14:31:57.999Z,23.57
2022-08-20T14:32:58.215Z,23.60
2022-08-20T14:33:57.988Z,23.50
2022-08-20T14:34:57.972Z,23.42
2022-08-20T14:35:57.958Z,23.38
2022-08-20T14:36:57.955Z,23.27
2022-08-20T14:37:57.958Z,23.27
2022-08-20T14:38:57.923Z,23.27
2022-08-20T14:39:57.965Z,23.20
2022-08-20T14:40:57.919Z,23.28
2022-08-20T14:41:57.899Z,23.33
2022-08-20T14:42:58.140Z,23.42
2022-08-20T14:43:57.874Z,23.48
2022-08-20T14:44:57.866Z,23.51
2022-08-20T14:45:57.853Z,23.68
2022-08-20T14:46:57.843Z,23.80
2022-08-20T14:47:57.842Z,23.85
2022-08-20T14:48:57.823Z,23.88
2022-08-20T14:49:57.815Z,24.22
2022-08-20T14:50:57.800Z,24.35
2022-08-20T14:51:57.786Z,24.71
2022-08-20T14:52:58.031Z,25.13
2022-08-20T14:53:57.766Z,25.17
2022-08-20T14:54:57.756Z,25.25
2022-08-20T14:55:57.746Z,25.03
2022-08-20T14:57:01.934Z,25.02
2022-08-20T14:57:57.734Z,24.98
2022-08-20T14:58:57.714Z,24.77
2022-08-20T14:59:57.696Z,24.62
2022-08-20T15:00:57.761Z,24.49
2022-08-20T15:01:57.675Z,24.31
2022-08-20T15:02:57.934Z,23.97
2022-08-20T15:03:57.658Z,23.85
2022-08-20T15:04:57.650Z,23.66
2022-08-20T15:05:57.618Z,23.48
2022-08-20T15:06:57.626Z,23.42
2022-08-20T15:07:57.630Z,23.48
2022-08-20T15:08:57.599Z,23.66
2022-08-20T15:09:57.589Z,23.78
2022-08-20T15:10:57.584Z,23.93
2022-08-20T15:11:57.552Z,24.09
2022-08-20T15:12:57.756Z,24.24
2022-08-20T15:13:57.548Z,24.37
2022-08-20T15:14:59.828Z,24.24
2022-08-20T15:15:57.529Z,24.09
2022-08-20T15:16:57.516Z,23.95
2022-08-20T15:17:57.518Z,23.91
2022-08-20T15:18:59.722Z,23.85
2022-08-20T15:19:57.479Z,23.78
2022-08-20T15:20:57.476Z,23.79
2022-08-20T15:21:57.463Z,23.76
2022-08-20T15:22:57.853Z,23.68
2022-08-20T15:23:57.436Z,23.60
2022-08-20T15:24:57.750Z,23.66
2022-08-20T15:25:57.416Z,23.61
2022-08-20T15:26:57.413Z,23.73
2022-08-20T15:27:58.326Z,23.75
2022-08-20T15:28:57.388Z,23.83
2022-08-20T15:29:57.373Z,23.88
2022-08-20T15:30:57.408Z,23.95
2022-08-20T15:31:57.389Z,24.05
2022-08-20T15:32:57.671Z,24.24
2022-08-20T15:33:57.321Z,24.35
2022-08-20T15:34:57.324Z,24.40
2022-08-20T15:35:57.302Z,24.61
2022-08-20T15:36:57.298Z,24.81
2022-08-20T15:37:57.303Z,24.84
2022-08-20T15:38:57.305Z,24.81
2022-08-20T15:39:57.288Z,24.73
2022-08-20T15:40:57.289Z,24.68
2022-08-20T15:41:57.255Z,24.60
2022-08-20T15:42:57.400Z,24.46
2022-08-20T15:43:57.237Z,24.53
2022-08-20T15:44:57.234Z,24.60
2022-08-20T15:45:57.198Z,24.60
2022-08-20T15:46:57.194Z,24.53
2022-08-20T15:47:57.188Z,24.43
2022-08-20T15:48:57.175Z,24.30
2022-08-20T15:49:57.156Z,24.03
2022-08-20T15:50:57.152Z,24.02
2022-08-20T15:51:57.127Z,23.88
2022-08-20T15:52:57.351Z,23.98
2022-08-20T15:53:57.116Z,24.16
2022-08-20T15:54:57.108Z,24.22
2022-08-20T15:55:57.096Z,24.25
2022-08-20T15:56:57.083Z,24.24
2022-08-20T15:57:57.082Z,24.05
2022-08-20T15:58:57.080Z,23.94
2022-08-20T15:59:57.047Z,23.85
2022-08-20T16:00:57.172Z,23.78
2022-08-20T16:01:57.108Z,23.61
2022-08-20T16:02:57.236Z,23.53
2022-08-20T16:03:57.004Z,23.42
2022-08-20T16:04:56.996Z,23.47
2022-08-20T16:05:56.979Z,23.57
2022-08-20T16:06:57.022Z,23.68
2022-08-20T16:07:56.976Z,23.79
2022-08-20T16:08:56.954Z,23.93
2022-08-20T16:09:56.938Z,23.95
2022-08-20T16:10:58.848Z,23.87
2022-08-20T16:11:56.920Z,23.75
2022-08-20T16:12:57.029Z,23.65
2022-08-20T16:13:57.482Z,23.63
2022-08-20T16:14:56.905Z,23.68
2022-08-20T16:15:56.909Z,23.58
2022-08-20T16:17:01.146Z,23.46
2022-08-20T16:17:56.870Z,23.39
2022-08-20T16:18:56.855Z,23.46
2022-08-20T16:19:56.833Z,23.43
2022-08-20T16:20:58.795Z,23.50
2022-08-20T16:21:56.818Z,23.61
2022-08-20T16:22:57.049Z,23.68
2022-08-20T16:23:56.789Z,23.75
2022-08-20T16:24:56.786Z,23.75
2022-08-20T16:25:56.767Z,23.68
2022-08-20T16:26:56.765Z,23.70
2022-08-20T16:27:56.760Z,23.69
2022-08-20T16:28:56.736Z,23.60
2022-08-20T16:29:56.729Z,23.58
2022-08-20T16:30:56.717Z,23.55
2022-08-20T16:31:56.704Z,23.54
2022-08-20T16:32:56.867Z,23.60
2022-08-20T16:33:56.681Z,23.54
2022-08-20T16:34:56.674Z,23.47
2022-08-20T16:35:56.657Z,23.50
2022-08-20T16:36:57.106Z,23.42
2022-08-20T16:37:56.700Z,23.38
2022-08-20T16:38:56.635Z,23.38
2022-08-20T16:39:56.675Z,23.32
2022-08-20T16:40:56.610Z,23.28
2022-08-20T16:41:56.591Z,23.23
2022-08-20T16:42:56.770Z,23.15
2022-08-20T16:43:56.570Z,23.10
2022-08-20T16:44:56.564Z,23.12
2022-08-20T16:45:56.554Z,23.16
2022-08-20T16:46:56.552Z,23.22
2022-08-20T16:47:56.546Z,23.35
2022-08-20T16:48:56.534Z,23.38
2022-08-20T16:49:56.529Z,23.31
2022-08-20T16:50:56.503Z,23.27
2022-08-20T16:51:56.488Z,23.31
2022-08-20T16:52:56.579Z,23.23
2022-08-20T16:53:56.480Z,23.19
2022-08-20T16:54:56.459Z,23.16
2022-08-20T16:55:56.440Z,23.09
2022-08-20T16:56:56.434Z,23.12
2022-08-20T16:57:56.426Z,23.13
2022-08-20T16:58:56.457Z,23.09
2022-08-20T16:59:56.501Z,23.10
2022-08-20T17:00:56.437Z,23.10
2022-08-20T17:01:56.379Z,23.20
2022-08-20T17:02:56.561Z,23.16
2022-08-20T17:03:56.389Z,23.17
2022-08-20T17:04:59.239Z,23.22
2022-08-20T17:05:56.334Z,23.22
2022-08-20T17:06:56.319Z,23.23
2022-08-20T17:07:56.462Z,23.19
2022-08-20T17:08:56.324Z,23.16
2022-08-20T17:09:56.299Z,23.20
2022-08-20T17:10:56.284Z,23.17
2022-08-20T17:11:56.271Z,23.07
2022-08-20T17:12:56.457Z,23.04
2022-08-20T17:13:56.260Z,23.00
2022-08-20T17:14:56.243Z,22.97
2022-08-20T17:15:56.225Z,23.00
2022-08-20T17:16:56.213Z,22.97
2022-08-20T17:17:56.208Z,22.86
2022-08-20T17:18:56.209Z,22.82
2022-08-20T17:19:56.180Z,22.80
2022-08-20T17:20:56.177Z,22.73
2022-08-20T17:21:56.164Z,22.61
2022-08-20T17:22:56.295Z,22.55
2022-08-20T17:23:56.745Z,22.46
2022-08-20T17:24:56.133Z,22.47
2022-08-20T17:25:56.124Z,22.52
2022-08-20T17:26:56.111Z,22.60
2022-08-20T17:27:56.106Z,22.67
2022-08-20T17:28:56.108Z,22.73
2022-08-20T17:29:56.077Z,22.64
2022-08-20T17:30:56.070Z,22.61
2022-08-20T17:31:56.051Z,22.57
2022-08-20T17:32:57.510Z,22.60
2022-08-20T17:33:56.052Z,22.62
2022-08-20T17:34:56.025Z,22.67
2022-08-20T17:35:56.010Z,22.73
2022-08-20T17:36:56.011Z,22.76
2022-08-20T17:37:55.998Z,22.77